Main page
METAR-TAF:

METAR-TAF

Airports :

Brescia Ghedi, Italy

Ghedi Air Base

latitude: 45-25N, longitude: 010-17E, elevation: 102 m

Current weather observation

The report was made 33 minutes ago, at 00:55 UTC
Temperature 19°C
Humidity 100%
Pressure 1014 hPa
Visibility: 6000 m

METAR: LIPL 250055Z /////KT 6000 NSC 19/19 Q1014 RMK SKC VIS MIN 6000 WIND THR31 04003KT WHT

Time: 03:28 (01:28 UTC)

Forecast

The report was made 2 hours and 28 minutes ago, at 23:00 UTC
Forecast valid from 25 at 00 UTC to 25 at 09 UTC
Wind 5 kt from the East
Visibility 10 km or more
no clouds below 1500 m and no cumulonimbus
Temporary
from 25 at 00 UTC to 25 at 06 UTC
Visibility: 5000 m
mist

TAF: LIPL 242300Z 2500/2509 09005KT CAVOK TEMPO 2500/2506 5000 BR NSC

Weather observations and forecasts of more than 4000 airports (METAR and TAF reports).

The available stations are represented by yellow and red dots on the map.

Hover mouse over dot to see the name of the station.

Then click to see weather observations and forecasts.

To change the map : click on the green buttons with a black cross to zoom in, on the green button with a dash to zoom out, or on the green arrows for adjacent maps.


METAR-TAF: